createdAt,value
2017-01-19T00:01:03.739Z,-0.9
2017-01-19T00:02:09.763Z,-0.7
2017-01-19T00:03:15.781Z,-0.8
2017-01-19T00:04:21.799Z,-0.8
2017-01-19T00:05:27.820Z,-0.7
2017-01-19T00:06:33.845Z,-0.6
2017-01-19T00:07:39.872Z,-0.8
2017-01-19T00:08:45.900Z,-0.7
2017-01-19T00:09:51.930Z,-0.7
2017-01-19T00:10:57.952Z,-0.8
2017-01-19T00:12:03.975Z,-0.8
2017-01-19T00:13:10.003Z,-1
2017-01-19T00:14:16.020Z,-1
2017-01-19T00:15:22.040Z,-0.9
2017-01-19T00:16:28.065Z,-1
2017-01-19T00:17:34.084Z,-0.9
2017-01-19T00:18:40.106Z,-0.9
2017-01-19T00:19:46.126Z,-0.9
2017-01-19T00:20:52.149Z,-0.8
2017-01-19T00:21:58.171Z,-0.9
2017-01-19T00:23:04.191Z,-1
2017-01-19T00:24:10.222Z,-0.8
2017-01-19T00:25:16.250Z,-0.9
2017-01-19T00:26:22.272Z,-1.1
2017-01-19T00:27:28.294Z,-0.9
2017-01-19T00:28:34.314Z,-0.8
2017-01-19T00:29:40.335Z,-0.7
2017-01-19T00:30:46.361Z,-0.7
2017-01-19T00:31:52.386Z,-0.9
2017-01-19T00:32:58.406Z,-0.9
2017-01-19T00:34:04.430Z,-0.7
2017-01-19T00:35:10.448Z,-0.8
2017-01-19T00:36:16.469Z,-0.9
2017-01-19T00:37:22.487Z,-0.9
2017-01-19T00:38:28.516Z,-0.9
2017-01-19T00:39:34.539Z,-0.9
2017-01-19T00:40:40.563Z,-1
2017-01-19T00:41:46.589Z,-0.9
2017-01-19T00:42:52.623Z,-0.9
2017-01-19T00:43:58.640Z,-0.9
2017-01-19T00:45:04.659Z,-0.9
2017-01-19T00:46:10.693Z,-1
2017-01-19T00:47:16.705Z,-0.9
2017-01-19T00:48:22.726Z,-0.8
2017-01-19T00:49:28.739Z,-0.8
2017-01-19T00:50:34.764Z,-0.8
2017-01-19T00:51:40.786Z,-0.8
2017-01-19T00:52:46.813Z,-0.8
2017-01-19T00:53:52.844Z,-0.9
2017-01-19T00:54:58.862Z,-1.1
2017-01-19T00:56:04.882Z,-1
2017-01-19T00:57:10.898Z,-1
2017-01-19T00:58:16.924Z,-1
2017-01-19T00:59:22.948Z,-1
2017-01-19T01:00:28.973Z,-1.1
2017-01-19T01:01:34.988Z,-1.1
2017-01-19T01:02:41.010Z,-0.9
2017-01-19T01:03:47.032Z,-0.9
2017-01-19T01:04:53.053Z,-1.1
2017-01-19T01:05:59.068Z,-1.1
2017-01-19T01:07:05.099Z,-1.1
2017-01-19T01:08:11.120Z,-1
2017-01-19T01:09:17.139Z,-0.9
2017-01-19T01:10:23.168Z,-0.9
2017-01-19T01:11:29.196Z,-1
2017-01-19T01:12:35.210Z,-1.1
2017-01-19T01:13:41.228Z,-1
2017-01-19T01:14:47.254Z,-1
2017-01-19T01:15:53.273Z,-1.1
2017-01-19T01:16:59.293Z,-1
2017-01-19T01:18:05.313Z,-1.1
2017-01-19T01:19:11.338Z,-1
2017-01-19T01:20:17.367Z,-1
2017-01-19T01:21:23.385Z,-0.9
2017-01-19T01:22:29.410Z,-0.8
2017-01-19T01:23:35.431Z,-1
2017-01-19T01:24:41.456Z,-1
2017-01-19T01:25:47.474Z,-1
2017-01-19T01:26:53.498Z,-1.2
2017-01-19T01:27:59.523Z,-1.1
2017-01-19T01:29:05.555Z,-1
2017-01-19T01:30:11.570Z,-0.9
2017-01-19T01:31:17.588Z,-0.9
2017-01-19T01:32:23.611Z,-1
2017-01-19T01:33:29.632Z,-0.9
2017-01-19T01:34:35.652Z,-1
2017-01-19T01:35:41.671Z,-1
2017-01-19T01:36:47.694Z,-1
2017-01-19T01:37:53.721Z,-0.9
2017-01-19T01:38:59.760Z,-0.8
2017-01-19T01:40:05.768Z,-0.9
2017-01-19T01:41:11.785Z,-0.8
2017-01-19T01:42:17.809Z,-0.8
2017-01-19T01:43:23.833Z,-0.9
2017-01-19T01:44:29.849Z,-0.8
2017-01-19T01:45:35.872Z,-0.8
2017-01-19T01:46:41.898Z,-0.8
2017-01-19T01:47:47.932Z,-0.9
2017-01-19T01:48:53.946Z,-0.9
2017-01-19T01:49:59.968Z,-0.9
2017-01-19T01:51:05.989Z,-1
2017-01-19T01:52:12.013Z,-0.9
2017-01-19T01:53:18.031Z,-0.9
2017-01-19T01:54:24.053Z,-0.8
2017-01-19T01:55:30.074Z,-0.7
2017-01-19T01:56:36.096Z,-0.8
2017-01-19T01:57:42.122Z,-0.9
2017-01-19T01:58:48.146Z,-0.8
2017-01-19T01:59:54.165Z,-0.8
2017-01-19T02:01:00.179Z,-0.8
2017-01-19T02:02:06.205Z,-0.7
2017-01-19T02:03:12.225Z,-0.7
2017-01-19T02:04:18.258Z,-0.7
2017-01-19T02:05:24.278Z,-0.7
2017-01-19T02:06:30.300Z,-0.7
2017-01-19T02:07:36.328Z,-0.7
2017-01-19T02:08:42.355Z,-0.7
2017-01-19T02:09:48.369Z,-0.6
2017-01-19T02:10:54.385Z,-0.6
2017-01-19T02:12:00.408Z,-0.5
2017-01-19T02:13:06.431Z,-0.8
2017-01-19T02:14:12.453Z,-0.7
2017-01-19T02:15:18.473Z,-0.7
2017-01-19T02:16:24.501Z,-0.7
2017-01-19T02:17:30.518Z,-0.6
2017-01-19T02:18:36.538Z,-0.7
2017-01-19T02:19:42.561Z,-0.8
2017-01-19T02:20:48.584Z,-0.9
2017-01-19T02:21:54.606Z,-0.8
2017-01-19T02:23:00.637Z,-0.6
2017-01-19T02:24:06.662Z,-0.5
2017-01-19T02:25:12.686Z,-0.5
2017-01-19T02:26:18.704Z,-0.6
2017-01-19T02:27:24.729Z,-0.5
2017-01-19T02:28:30.748Z,-0.4
2017-01-19T02:29:36.773Z,-0.5
2017-01-19T02:30:42.797Z,-0.7
2017-01-19T02:31:48.823Z,-0.7
2017-01-19T02:32:54.854Z,-0.6
2017-01-19T02:34:00.876Z,-0.5
2017-01-19T02:35:06.897Z,-0.6
2017-01-19T02:36:12.919Z,-0.5
2017-01-19T02:37:18.946Z,-0.5
2017-01-19T02:38:24.973Z,-0.6
2017-01-19T02:39:30.990Z,-0.7
2017-01-19T02:40:37.010Z,-0.7
2017-01-19T02:41:43.035Z,-0.6
2017-01-19T02:42:49.061Z,-0.6
2017-01-19T02:43:55.103Z,-0.6
2017-01-19T02:45:01.098Z,-0.7
2017-01-19T02:46:07.122Z,-0.7
2017-01-19T02:47:13.142Z,-0.6
2017-01-19T02:48:19.155Z,-0.6
2017-01-19T02:49:25.183Z,-0.7
2017-01-19T02:50:31.213Z,-0.7
2017-01-19T02:51:37.244Z,-0.6
2017-01-19T02:52:43.261Z,-0.5
2017-01-19T02:53:49.289Z,-0.8
2017-01-19T02:54:55.316Z,-0.8
2017-01-19T02:56:01.328Z,-0.8
2017-01-19T02:57:07.349Z,-0.9
2017-01-19T02:58:13.373Z,-0.8
2017-01-19T02:59:19.397Z,-0.8
2017-01-19T03:00:25.415Z,-0.8
2017-01-19T03:01:31.436Z,-0.9
2017-01-19T03:02:37.462Z,-0.7
2017-01-19T03:03:43.487Z,-0.5
2017-01-19T03:04:49.510Z,-0.7
2017-01-19T03:05:55.532Z,-0.8
2017-01-19T03:07:01.562Z,-0.6
2017-01-19T03:08:07.579Z,-0.6
2017-01-19T03:09:13.593Z,-0.7
2017-01-19T03:10:19.629Z,-0.7
2017-01-19T03:11:25.648Z,-0.8
2017-01-19T03:12:31.664Z,-1
2017-01-19T03:13:37.689Z,-0.9
2017-01-19T03:14:43.711Z,-0.9
2017-01-19T03:15:49.743Z,-0.9
2017-01-19T03:16:55.759Z,-0.7
2017-01-19T03:18:01.776Z,-0.8
2017-01-19T03:19:07.804Z,-0.7
2017-01-19T03:20:13.827Z,-0.7
2017-01-19T03:21:19.842Z,-0.6
2017-01-19T03:22:25.870Z,-0.6
2017-01-19T03:23:31.896Z,-0.6
2017-01-19T03:24:37.912Z,-0.6
2017-01-19T03:25:43.945Z,-0.7
2017-01-19T03:26:49.972Z,-0.8
2017-01-19T03:27:55.999Z,-0.7
2017-01-19T03:29:02.015Z,-0.7
2017-01-19T03:30:08.040Z,-0.7
2017-01-19T03:31:14.067Z,-0.8
2017-01-19T03:32:20.094Z,-0.7
2017-01-19T03:33:26.104Z,-0.7
2017-01-19T03:34:32.131Z,-0.7
2017-01-19T03:35:38.158Z,-0.9
2017-01-19T03:36:44.177Z,-0.8
2017-01-19T03:37:50.190Z,-0.9
2017-01-19T03:38:56.212Z,-0.8
2017-01-19T03:40:02.239Z,-0.7
2017-01-19T03:41:08.263Z,-0.7
2017-01-19T03:42:14.284Z,-0.8
2017-01-19T03:43:20.305Z,-0.8
2017-01-19T03:44:25.234Z,-0.6
2017-01-19T03:45:31.256Z,-0.8
2017-01-19T03:46:37.280Z,-0.9
2017-01-19T03:47:43.297Z,-0.9
2017-01-19T03:48:49.319Z,-0.8
2017-01-19T03:49:55.341Z,-0.9
2017-01-19T03:51:01.366Z,-0.7
2017-01-19T03:52:07.383Z,-0.7
2017-01-19T03:53:13.409Z,-0.6
2017-01-19T03:54:19.437Z,-0.6
2017-01-19T03:55:25.458Z,-0.9
2017-01-19T03:56:31.479Z,-0.9
2017-01-19T03:57:37.501Z,-1
2017-01-19T03:58:43.522Z,-1
2017-01-19T03:59:49.543Z,-1
2017-01-19T04:00:55.571Z,-1
2017-01-19T04:02:01.595Z,-0.9
2017-01-19T04:03:07.623Z,-1
2017-01-19T04:04:13.640Z,-1.1
2017-01-19T04:05:19.669Z,-1
2017-01-19T04:06:25.689Z,-0.9
2017-01-19T04:07:31.702Z,-0.8
2017-01-19T04:08:37.730Z,-0.8
2017-01-19T04:09:43.758Z,-0.7
2017-01-19T04:10:49.777Z,-0.8
2017-01-19T04:11:55.797Z,-0.9
2017-01-19T04:13:01.818Z,-0.9
2017-01-19T04:14:07.846Z,-0.9
2017-01-19T04:15:13.877Z,-1
2017-01-19T04:16:19.892Z,-0.9
2017-01-19T04:17:25.923Z,-0.8
2017-01-19T04:18:31.942Z,-0.9
2017-01-19T04:19:37.971Z,-0.8
2017-01-19T04:20:43.994Z,-0.9
2017-01-19T04:21:50.025Z,-1
2017-01-19T04:22:56.045Z,-0.9
2017-01-19T04:24:02.061Z,-0.8
2017-01-19T04:25:08.079Z,-0.9
2017-01-19T04:26:14.104Z,-1
2017-01-19T04:27:20.131Z,-1
2017-01-19T04:28:26.147Z,-0.9
2017-01-19T04:29:32.174Z,-0.9
2017-01-19T04:30:38.204Z,-1
2017-01-19T04:31:44.228Z,-1
2017-01-19T04:32:50.239Z,-1
2017-01-19T04:33:56.270Z,-0.8
2017-01-19T04:35:02.296Z,-0.8
2017-01-19T04:36:08.315Z,-0.8
2017-01-19T04:37:14.330Z,-0.9
2017-01-19T04:38:20.355Z,-1
2017-01-19T04:39:26.376Z,-1.2
2017-01-19T04:40:32.394Z,-1.1
2017-01-19T04:41:38.420Z,-0.9
2017-01-19T04:42:44.440Z,-0.8
2017-01-19T04:43:50.467Z,-0.7
2017-01-19T04:44:56.484Z,-0.8
2017-01-19T04:46:02.504Z,-1
2017-01-19T04:47:08.529Z,-1.1
2017-01-19T04:48:14.557Z,-0.9
2017-01-19T04:49:20.571Z,-1.2
2017-01-19T04:50:26.594Z,-1.1
2017-01-19T04:51:32.626Z,-1.1
2017-01-19T04:52:38.639Z,-1.1
2017-01-19T04:53:44.658Z,-1.2
2017-01-19T04:54:50.686Z,-1.1
2017-01-19T04:55:56.708Z,-1.1
2017-01-19T04:57:02.727Z,-1.1
2017-01-19T04:58:08.757Z,-1.1
2017-01-19T04:59:14.775Z,-1
2017-01-19T05:00:20.795Z,-1
2017-01-19T05:01:26.809Z,-0.9
2017-01-19T05:02:32.838Z,-0.9
2017-01-19T05:03:38.858Z,-0.8
2017-01-19T05:04:44.878Z,-1.1
2017-01-19T05:05:50.911Z,-1.1
2017-01-19T05:06:56.933Z,-1.1
2017-01-19T05:08:02.955Z,-1.2
2017-01-19T05:09:08.978Z,-1.1
2017-01-19T05:10:14.996Z,-1.1
2017-01-19T05:11:21.011Z,-1.1
2017-01-19T05:12:27.039Z,-1.2
2017-01-19T05:13:33.064Z,-1.3
2017-01-19T05:14:39.100Z,-1.3
2017-01-19T05:15:45.120Z,-1.2
2017-01-19T05:16:51.143Z,-1.1
2017-01-19T05:17:57.173Z,-1.1
2017-01-19T05:19:03.187Z,-1.2
2017-01-19T05:20:09.207Z,-1.2
2017-01-19T05:21:15.225Z,-1
2017-01-19T05:22:21.241Z,-1.2
2017-01-19T05:23:27.274Z,-1.2
2017-01-19T05:24:33.296Z,-1.2
2017-01-19T05:25:39.315Z,-1
2017-01-19T05:26:45.335Z,-1.2
2017-01-19T05:27:51.362Z,-1.1
2017-01-19T05:28:57.384Z,-1.2
2017-01-19T05:30:03.405Z,-1.1
2017-01-19T05:31:09.423Z,-1
2017-01-19T05:32:15.449Z,-0.9
2017-01-19T05:33:21.470Z,-1.1
2017-01-19T05:34:27.499Z,-1.1
2017-01-19T05:35:33.520Z,-1
2017-01-19T05:36:39.541Z,-0.9
2017-01-19T05:37:45.568Z,-0.9
2017-01-19T05:38:51.590Z,-1.1
2017-01-19T05:39:57.617Z,-0.9
2017-01-19T05:41:03.645Z,-0.9
2017-01-19T05:42:09.666Z,-0.9
2017-01-19T05:43:15.687Z,-0.9
2017-01-19T05:44:21.719Z,-1
2017-01-19T05:45:27.735Z,-1
2017-01-19T05:46:33.757Z,-1
2017-01-19T05:47:39.777Z,-1
2017-01-19T05:48:45.803Z,-1.2
2017-01-19T05:49:51.824Z,-1.2
2017-01-19T05:50:57.845Z,-1.3
2017-01-19T05:52:03.874Z,-1.3
2017-01-19T05:53:09.905Z,-1.2
2017-01-19T05:54:15.929Z,-1.3
2017-01-19T05:55:21.949Z,-1.4
2017-01-19T05:56:27.973Z,-1.2
2017-01-19T05:57:34.000Z,-1.1
2017-01-19T05:58:40.023Z,-1.2
2017-01-19T05:59:46.050Z,-1.1
2017-01-19T06:00:52.062Z,-1.1
2017-01-19T06:01:58.092Z,-1.1
2017-01-19T06:03:04.119Z,-0.9
2017-01-19T06:04:10.149Z,-0.9
2017-01-19T06:05:16.161Z,-1
2017-01-19T06:06:22.188Z,-1.1
2017-01-19T06:07:28.210Z,-1.1
2017-01-19T06:08:34.228Z,-1
2017-01-19T06:09:40.259Z,-1.2
2017-01-19T06:10:46.287Z,-1.1
2017-01-19T06:11:52.313Z,-1
2017-01-19T06:12:58.328Z,-0.9
2017-01-19T06:14:04.359Z,-0.9
2017-01-19T06:15:10.369Z,-0.9
2017-01-19T06:16:16.386Z,-0.9
2017-01-19T06:17:22.408Z,-0.8
2017-01-19T06:18:28.436Z,-1
2017-01-19T06:19:34.455Z,-1.1
2017-01-19T06:20:40.467Z,-1.3
2017-01-19T06:21:46.495Z,-1.1
2017-01-19T06:22:52.523Z,-1.3
2017-01-19T06:23:58.544Z,-1.2
2017-01-19T06:25:04.560Z,-1.3
2017-01-19T06:26:10.596Z,-1.2
2017-01-19T06:27:16.601Z,-1
2017-01-19T06:28:22.634Z,-0.9
2017-01-19T06:29:28.655Z,-1
2017-01-19T06:30:34.677Z,-1
2017-01-19T06:31:40.693Z,-0.9
2017-01-19T06:32:46.715Z,-0.9
2017-01-19T06:33:52.745Z,-0.9
2017-01-19T06:34:58.775Z,-1.2
2017-01-19T06:36:04.798Z,-1.1
2017-01-19T06:37:10.821Z,-1.1
2017-01-19T06:38:16.849Z,-1
2017-01-19T06:39:22.874Z,-1.1
2017-01-19T06:40:28.903Z,-1
2017-01-19T06:41:34.915Z,-1.1
2017-01-19T06:42:40.954Z,-1
2017-01-19T06:43:46.309Z,-1.1
2017-01-19T06:44:52.330Z,-1
2017-01-19T06:45:58.352Z,-1.1
2017-01-19T06:47:04.375Z,-1.1
2017-01-19T06:48:10.445Z,-1
2017-01-19T06:49:16.464Z,-0.9
2017-01-19T06:50:22.565Z,-1
2017-01-19T06:51:28.524Z,-1
2017-01-19T06:52:34.545Z,-1.2
2017-01-19T06:53:40.561Z,-1.2
2017-01-19T06:54:46.591Z,-1.1
2017-01-19T06:55:52.616Z,-1.2
2017-01-19T06:56:58.635Z,-1.2
2017-01-19T06:58:04.657Z,-1.3
2017-01-19T06:59:10.675Z,-1.1
2017-01-19T07:00:16.705Z,-0.8
2017-01-19T07:01:22.723Z,-1
2017-01-19T07:02:28.747Z,-1
2017-01-19T07:03:34.777Z,-1.2
2017-01-19T07:04:40.798Z,-1.2
2017-01-19T07:05:46.816Z,-1.1
2017-01-19T07:06:52.845Z,-1.1
2017-01-19T07:07:58.866Z,-1
2017-01-19T07:09:04.893Z,-0.8
2017-01-19T07:10:10.918Z,-0.9
2017-01-19T07:11:16.942Z,-0.8
2017-01-19T07:12:22.965Z,-0.8
2017-01-19T07:13:28.995Z,-0.8
2017-01-19T07:14:35.076Z,-1.1
2017-01-19T07:15:41.055Z,-1.2
2017-01-19T07:16:47.070Z,-1.2
2017-01-19T07:17:53.094Z,-1.1
2017-01-19T07:18:59.115Z,-1
2017-01-19T07:20:05.142Z,-0.9
2017-01-19T07:21:11.169Z,-0.9
2017-01-19T07:22:17.189Z,-1.2
2017-01-19T07:23:23.220Z,-1.2
2017-01-19T07:24:29.247Z,-1.3
2017-01-19T07:25:35.272Z,-1.1
2017-01-19T07:26:41.293Z,-1.1
2017-01-19T07:27:47.317Z,-1
2017-01-19T07:28:53.340Z,-1.1
2017-01-19T07:29:59.366Z,-1
2017-01-19T07:31:05.389Z,-1.1
2017-01-19T07:32:11.406Z,-1.2
2017-01-19T07:33:17.422Z,-1.2
2017-01-19T07:34:23.448Z,-1.4
2017-01-19T07:35:29.473Z,-1.3
2017-01-19T07:36:35.495Z,-1.3
2017-01-19T07:37:41.522Z,-1.4
2017-01-19T07:38:47.539Z,-1.3
2017-01-19T07:39:53.576Z,-1.2
2017-01-19T07:40:59.595Z,-1.1
2017-01-19T07:42:05.618Z,-1
2017-01-19T07:43:11.631Z,-0.9
2017-01-19T07:44:17.650Z,-1
2017-01-19T07:45:23.670Z,-1.3
2017-01-19T07:46:29.704Z,-1.2
2017-01-19T07:47:35.720Z,-1.1
2017-01-19T07:48:41.738Z,-1
2017-01-19T07:49:47.761Z,-1
2017-01-19T07:50:53.791Z,-1
2017-01-19T07:51:59.804Z,-1
2017-01-19T07:53:05.831Z,-1.2
2017-01-19T07:54:11.850Z,-1.2
2017-01-19T07:55:17.877Z,-1
2017-01-19T07:56:23.901Z,-0.9
2017-01-19T07:57:29.923Z,-0.9
2017-01-19T07:58:35.941Z,-1.1
2017-01-19T07:59:41.964Z,-1.1
2017-01-19T08:00:47.980Z,-1
2017-01-19T08:01:53.998Z,-1.1
2017-01-19T08:03:00.016Z,-1.1
2017-01-19T08:04:06.048Z,-1
2017-01-19T08:05:12.059Z,-0.9
2017-01-19T08:06:18.089Z,-0.7
2017-01-19T08:07:24.109Z,-0.6
2017-01-19T08:08:30.129Z,-0.8
2017-01-19T08:09:36.161Z,-0.9
2017-01-19T08:10:42.187Z,-1
2017-01-19T08:11:48.210Z,-0.9
2017-01-19T08:12:54.236Z,-0.8
2017-01-19T08:14:00.255Z,-0.6
2017-01-19T08:15:06.283Z,-0.8
2017-01-19T08:16:12.302Z,-0.8
2017-01-19T08:17:18.331Z,-1
2017-01-19T08:18:24.348Z,-0.9
2017-01-19T08:19:30.371Z,-0.9
2017-01-19T08:20:36.393Z,-0.9
2017-01-19T08:21:42.425Z,-0.8
2017-01-19T08:22:48.443Z,-0.7
2017-01-19T08:23:54.471Z,-0.8
2017-01-19T08:25:00.495Z,-0.8
2017-01-19T08:26:06.525Z,-0.7
2017-01-19T08:27:12.542Z,-0.7
2017-01-19T08:28:18.572Z,-0.7
2017-01-19T08:29:24.587Z,-0.6
2017-01-19T08:30:30.612Z,-0.5
2017-01-19T08:31:36.640Z,-0.8
2017-01-19T08:32:42.665Z,-0.7
2017-01-19T08:33:48.692Z,-0.6
2017-01-19T08:34:54.707Z,-0.8
2017-01-19T08:36:00.733Z,-0.9
2017-01-19T08:37:06.753Z,-0.7
2017-01-19T08:38:12.779Z,-0.5
2017-01-19T08:39:18.793Z,-0.4
2017-01-19T08:40:24.815Z,-0.4
2017-01-19T08:41:30.831Z,-0.4
2017-01-19T08:42:36.865Z,-0.3
2017-01-19T08:43:42.894Z,-0.3
2017-01-19T08:44:48.922Z,-0.2
2017-01-19T08:45:54.936Z,-0.2
2017-01-19T08:47:00.967Z,-0.3
2017-01-19T08:48:06.986Z,-0.3
2017-01-19T08:49:13.008Z,-0.1
2017-01-19T08:50:19.023Z,-0.1
2017-01-19T08:51:25.053Z,-0.1
2017-01-19T08:52:31.080Z,-0.1
2017-01-19T08:53:37.096Z,0
2017-01-19T08:54:43.115Z,0
2017-01-19T08:55:49.133Z,0.1
2017-01-19T08:56:55.148Z,0.1
2017-01-19T08:58:01.169Z,0.1
2017-01-19T08:59:07.195Z,0.1
2017-01-19T09:00:13.215Z,-0.1
2017-01-19T09:01:19.233Z,-0.2
2017-01-19T09:02:25.254Z,-0.1
2017-01-19T09:03:31.284Z,-0.4
2017-01-19T09:04:37.310Z,-0.3
2017-01-19T09:05:43.333Z,-0.3
2017-01-19T09:06:49.351Z,-0.1
2017-01-19T09:07:55.372Z,0
2017-01-19T09:09:01.396Z,0.2
2017-01-19T09:10:07.417Z,0.4
2017-01-19T09:11:13.440Z,0.4
2017-01-19T09:12:19.467Z,0.4
2017-01-19T09:13:25.486Z,0.4
2017-01-19T09:14:31.505Z,0.4
2017-01-19T09:15:37.523Z,0.4
2017-01-19T09:16:43.553Z,0.3
2017-01-19T09:17:49.583Z,0.4
2017-01-19T09:18:55.603Z,0.5
2017-01-19T09:20:01.617Z,0.3
2017-01-19T09:21:07.632Z,0
2017-01-19T09:22:13.658Z,0.1
2017-01-19T09:23:19.678Z,0.3
2017-01-19T09:24:25.706Z,0.4
2017-01-19T09:25:31.722Z,0.6
2017-01-19T09:26:37.740Z,0.7
2017-01-19T09:27:43.765Z,0.7
2017-01-19T09:28:49.783Z,0.9
2017-01-19T09:29:55.804Z,0.8
2017-01-19T09:31:01.827Z,0.6
2017-01-19T09:32:07.849Z,0.7
2017-01-19T09:33:13.865Z,0.5
2017-01-19T09:34:19.891Z,0.3
2017-01-19T09:35:25.914Z,0.5
2017-01-19T09:36:31.936Z,0.7
2017-01-19T09:37:37.953Z,1
2017-01-19T09:38:43.973Z,0.9
2017-01-19T09:39:49.991Z,1
2017-01-19T09:40:56.014Z,0.8
2017-01-19T09:42:02.027Z,0.5
2017-01-19T09:43:08.053Z,0.4
2017-01-19T09:44:14.079Z,0.6
2017-01-19T09:45:20.104Z,0.7
2017-01-19T09:46:26.120Z,0.8
2017-01-19T09:47:32.145Z,0.7
2017-01-19T09:48:38.158Z,0.8
2017-01-19T09:49:44.176Z,0.8
2017-01-19T09:50:50.188Z,0.7
2017-01-19T09:51:56.213Z,0.5
2017-01-19T09:53:02.235Z,0.5
2017-01-19T09:54:08.367Z,0.7
2017-01-19T09:55:14.357Z,0.6
2017-01-19T09:56:20.381Z,0.5
2017-01-19T09:57:26.403Z,0.6
2017-01-19T09:58:32.413Z,0.7
2017-01-19T09:59:38.434Z,0.7
2017-01-19T10:00:44.462Z,0.8
2017-01-19T10:01:50.477Z,0.7
2017-01-19T10:02:56.489Z,0.7
2017-01-19T10:04:02.516Z,0.6
2017-01-19T10:05:08.542Z,0.4
2017-01-19T10:06:14.569Z,0.3
2017-01-19T10:07:20.579Z,0.5
2017-01-19T10:08:26.615Z,0.4
2017-01-19T10:09:32.623Z,0.6
2017-01-19T10:10:38.646Z,0.8
2017-01-19T10:11:44.663Z,1
2017-01-19T10:12:50.689Z,1.1
2017-01-19T10:13:56.705Z,0.9
2017-01-19T10:15:02.740Z,1
2017-01-19T10:16:08.757Z,1
2017-01-19T10:17:14.779Z,1
2017-01-19T10:18:20.784Z,1.1
2017-01-19T10:19:26.813Z,0.9
2017-01-19T10:20:32.832Z,0.8
2017-01-19T10:21:38.857Z,0.7
2017-01-19T10:22:44.879Z,0.8
2017-01-19T10:23:50.902Z,0.7
2017-01-19T10:24:56.923Z,0.7
2017-01-19T10:26:02.943Z,0.8
2017-01-19T10:27:08.976Z,1
2017-01-19T10:28:14.982Z,0.9
2017-01-19T10:29:20.997Z,1.1
2017-01-19T10:30:27.035Z,1.2
2017-01-19T10:31:33.048Z,1.1
2017-01-19T10:32:39.071Z,1.2
2017-01-19T10:33:45.093Z,1.2
2017-01-19T10:34:51.116Z,1.2
2017-01-19T10:35:57.139Z,1.2
2017-01-19T10:37:03.152Z,1.2
2017-01-19T10:38:09.170Z,1.3
2017-01-19T10:39:15.190Z,1.4
2017-01-19T10:40:21.218Z,1.3
2017-01-19T10:41:27.241Z,1.3
2017-01-19T10:42:33.256Z,1.4
2017-01-19T10:43:39.274Z,1.4
2017-01-19T10:44:45.298Z,1.4
2017-01-19T10:45:51.319Z,1.6
2017-01-19T10:46:57.338Z,1.4
2017-01-19T10:48:03.359Z,1.4
2017-01-19T10:49:09.378Z,1.2
2017-01-19T10:50:15.397Z,1.1
2017-01-19T10:51:21.420Z,1.3
2017-01-19T10:52:27.449Z,1.5
2017-01-19T10:53:33.468Z,1.6
2017-01-19T10:54:39.487Z,1
2017-01-19T10:55:45.505Z,1
2017-01-19T10:56:51.522Z,1.3
2017-01-19T10:57:57.539Z,1.4
2017-01-19T10:59:03.563Z,1.5
2017-01-19T11:00:09.582Z,1.6
2017-01-19T11:01:15.599Z,1.6
2017-01-19T11:02:21.614Z,1.6
2017-01-19T11:03:27.633Z,1.4
2017-01-19T11:04:33.653Z,1.2
2017-01-19T11:05:39.679Z,1.3
2017-01-19T11:06:45.702Z,1.4
2017-01-19T11:07:51.725Z,1.5
2017-01-19T11:08:57.753Z,1.6
2017-01-19T11:10:03.764Z,1.6
2017-01-19T11:11:09.783Z,1.5
2017-01-19T11:12:15.806Z,1.2
2017-01-19T11:13:21.827Z,1.3
2017-01-19T11:14:27.850Z,1.4
2017-01-19T11:15:33.872Z,1.4
2017-01-19T11:16:39.895Z,1.4
2017-01-19T11:17:45.910Z,1.4
2017-01-19T11:18:51.935Z,1.5
2017-01-19T11:19:57.953Z,1.6
2017-01-19T11:21:03.972Z,1.5
2017-01-19T11:22:10.001Z,1.5
2017-01-19T11:23:16.026Z,1.7
2017-01-19T11:24:22.047Z,1.3
2017-01-19T11:25:28.066Z,1.2
2017-01-19T11:26:34.127Z,1.3
2017-01-19T11:27:40.354Z,1.5
2017-01-19T11:28:46.375Z,1.5
2017-01-19T11:29:52.394Z,1.6
2017-01-19T11:30:58.417Z,1.5
2017-01-19T11:32:04.434Z,1.6
2017-01-19T11:33:10.451Z,1.4
2017-01-19T11:34:16.468Z,1.4
2017-01-19T11:35:22.627Z,1.4
2017-01-19T11:36:28.624Z,1.4
2017-01-19T11:37:34.641Z,1.6
2017-01-19T11:38:40.662Z,1.7
2017-01-19T11:39:46.677Z,1.9
2017-01-19T11:40:52.706Z,1.8
2017-01-19T11:41:58.727Z,1.5
2017-01-19T11:43:04.747Z,1.7
2017-01-19T11:44:11.053Z,1.7
2017-01-19T11:45:17.037Z,1.8
2017-01-19T11:46:23.059Z,1.9
2017-01-19T11:47:29.081Z,2
2017-01-19T11:48:34.002Z,1.9
2017-01-19T11:49:40.024Z,1.8
2017-01-19T11:50:46.050Z,1.9
2017-01-19T11:51:52.264Z,1.9
2017-01-19T11:52:58.306Z,1.8
2017-01-19T11:54:04.328Z,1.8
2017-01-19T11:55:10.355Z,1.6
2017-01-19T11:56:16.373Z,1.5
2017-01-19T11:57:22.389Z,1.6
2017-01-19T11:58:28.411Z,1.8
2017-01-19T11:59:34.440Z,1.7
2017-01-19T12:00:40.451Z,1.7
2017-01-19T12:01:46.615Z,1.6
2017-01-19T12:02:52.639Z,1.7
2017-01-19T12:03:58.668Z,1.7
2017-01-19T12:05:04.683Z,1.5
2017-01-19T12:06:10.707Z,1.4
2017-01-19T12:07:16.731Z,1.4
2017-01-19T12:08:22.751Z,1.5
2017-01-19T12:09:28.772Z,1.7
2017-01-19T12:10:34.984Z,1.7
2017-01-19T12:11:41.005Z,1.8
2017-01-19T12:12:47.018Z,1.9
2017-01-19T12:13:53.055Z,2
2017-01-19T12:14:59.326Z,1.9
2017-01-19T12:16:05.352Z,2.1
2017-01-19T12:17:11.371Z,2.1
2017-01-19T12:18:17.390Z,2.1
2017-01-19T12:19:23.417Z,2.2
2017-01-19T12:20:29.440Z,2.1
2017-01-19T12:21:35.462Z,2.1
2017-01-19T12:22:41.473Z,2.2
2017-01-19T12:23:47.495Z,2.3
2017-01-19T12:24:53.706Z,2.2
2017-01-19T12:25:59.556Z,2.3
2017-01-19T12:27:05.728Z,2.3
2017-01-19T12:28:11.904Z,2.2
2017-01-19T12:29:17.922Z,2.1
2017-01-19T12:30:24.164Z,2.2
2017-01-19T12:31:30.190Z,2.3
2017-01-19T12:32:36.215Z,2.2
2017-01-19T12:33:42.239Z,2
2017-01-19T12:34:48.257Z,2.1
2017-01-19T12:35:54.275Z,2.1
2017-01-19T12:37:00.449Z,2.1
2017-01-19T12:38:06.418Z,2.3
2017-01-19T12:39:12.491Z,2.2
2017-01-19T12:40:18.585Z,2.3
2017-01-19T12:41:24.559Z,2.5
2017-01-19T12:42:30.570Z,2.1
2017-01-19T12:43:36.659Z,2.2
2017-01-19T12:44:42.683Z,2
2017-01-19T12:45:48.963Z,2.2
2017-01-19T12:46:54.925Z,2.2
2017-01-19T12:48:01.188Z,2.2
2017-01-19T12:49:07.197Z,2.1
2017-01-19T12:50:13.218Z,1.9
2017-01-19T12:51:19.239Z,1.8
2017-01-19T12:52:25.261Z,2
2017-01-19T12:53:32.181Z,1.8
2017-01-19T12:54:38.220Z,1.8
2017-01-19T12:55:44.241Z,1.8
2017-01-19T12:56:50.260Z,1.9
2017-01-19T12:57:56.279Z,1.8
2017-01-19T12:59:02.287Z,1.9
2017-01-19T13:00:08.753Z,2.1
2017-01-19T13:01:14.743Z,2.1
2017-01-19T13:02:21.033Z,2.1
2017-01-19T13:03:27.057Z,2.1
2017-01-19T13:04:34.882Z,2
2017-01-19T13:05:39.944Z,2
2017-01-19T13:06:45.986Z,2.1
2017-01-19T13:07:52.070Z,2.2
2017-01-19T13:08:58.092Z,2.1
2017-01-19T13:10:04.110Z,2.2
2017-01-19T13:11:11.975Z,2.3
2017-01-19T13:12:16.731Z,2.3
2017-01-19T13:13:22.743Z,2
2017-01-19T13:14:28.741Z,2
2017-01-19T13:15:34.756Z,2.1
2017-01-19T13:16:40.820Z,2.1
2017-01-19T13:17:46.810Z,2.1
2017-01-19T13:18:52.836Z,2.2
2017-01-19T13:19:58.939Z,2.3
2017-01-19T13:21:04.975Z,2.3
2017-01-19T13:22:11.018Z,2.4
2017-01-19T13:23:17.149Z,2.2
2017-01-19T13:24:23.165Z,2.1
2017-01-19T13:25:29.195Z,2.2
2017-01-19T13:26:35.220Z,2.3
2017-01-19T13:27:41.246Z,2.3
2017-01-19T13:28:47.284Z,2.2
2017-01-19T13:29:53.326Z,2.3
2017-01-19T13:30:59.354Z,2.3
2017-01-19T13:32:05.377Z,2
2017-01-19T13:33:11.401Z,2.1
2017-01-19T13:34:17.435Z,2.1
2017-01-19T13:35:23.453Z,2.2
2017-01-19T13:36:29.472Z,1.9
2017-01-19T13:37:35.510Z,2
2017-01-19T13:38:41.586Z,2.2
2017-01-19T13:39:48.678Z,2.3
2017-01-19T13:40:54.694Z,2.3
2017-01-19T13:42:00.729Z,2
2017-01-19T13:43:06.751Z,1.9
2017-01-19T13:44:12.775Z,2
2017-01-19T13:45:18.985Z,1.9
2017-01-19T13:46:25.003Z,1.9
2017-01-19T13:47:31.031Z,2
2017-01-19T13:48:37.060Z,2.1
2017-01-19T13:49:43.072Z,2
2017-01-19T13:50:49.108Z,1.9
2017-01-19T13:51:55.132Z,1.9
2017-01-19T13:53:01.157Z,2
2017-01-19T13:54:07.199Z,1.9
2017-01-19T13:55:13.209Z,2
2017-01-19T13:56:19.235Z,2
2017-01-19T13:57:25.251Z,1.8
2017-01-19T13:58:31.272Z,1.9
2017-01-19T13:59:37.562Z,2
2017-01-19T14:00:43.803Z,2.1
2017-01-19T14:01:49.820Z,2.3
2017-01-19T14:02:55.845Z,2.2
2017-01-19T14:04:01.874Z,2.3
2017-01-19T14:05:07.893Z,2.2
2017-01-19T14:06:13.907Z,2.3
2017-01-19T14:07:20.132Z,2.1
2017-01-19T14:08:26.076Z,2
2017-01-19T14:09:32.101Z,2
2017-01-19T14:10:38.117Z,1.9
2017-01-19T14:11:44.136Z,1.8
2017-01-19T14:12:50.153Z,1.9
2017-01-19T14:13:56.184Z,2
2017-01-19T14:15:02.209Z,1.9
2017-01-19T14:16:08.262Z,2
2017-01-19T14:17:14.285Z,2
2017-01-19T14:18:20.310Z,2.1
2017-01-19T14:19:26.372Z,2.1
2017-01-19T14:20:34.263Z,2.2
2017-01-19T14:21:38.146Z,2.2
2017-01-19T14:22:44.305Z,2.3
2017-01-19T14:23:50.375Z,2.3
2017-01-19T14:24:56.646Z,2.3
2017-01-19T14:26:02.662Z,2.3
2017-01-19T14:27:08.678Z,2.2
2017-01-19T14:28:14.696Z,2
2017-01-19T14:29:20.719Z,2.1
2017-01-19T14:30:26.739Z,2.2
2017-01-19T14:31:32.760Z,2.3
2017-01-19T14:32:39.351Z,2.1
2017-01-19T14:33:45.986Z,2.1
2017-01-19T14:34:52.025Z,2
2017-01-19T14:35:58.045Z,2
2017-01-19T14:37:04.077Z,1.8
2017-01-19T14:38:10.093Z,1.9
2017-01-19T14:39:16.123Z,2
2017-01-19T14:40:22.138Z,2
2017-01-19T14:41:28.810Z,2.1
2017-01-19T14:42:34.842Z,2
2017-01-19T14:43:40.873Z,2
2017-01-19T14:44:46.899Z,2
2017-01-19T14:45:52.915Z,2.1
2017-01-19T14:46:59.093Z,2.1
2017-01-19T14:48:05.237Z,2.1
2017-01-19T14:49:11.107Z,2.1
2017-01-19T14:50:17.119Z,1.9
2017-01-19T14:51:23.146Z,2
2017-01-19T14:52:29.233Z,2
2017-01-19T14:53:35.254Z,2.1
2017-01-19T14:54:41.280Z,2
2017-01-19T14:55:47.360Z,2
2017-01-19T14:56:53.438Z,2.1
2017-01-19T14:57:59.444Z,2.1
2017-01-19T14:59:05.463Z,2.1
2017-01-19T15:00:11.482Z,2
2017-01-19T15:01:17.670Z,2.1